createdAt,value
2018-12-29T00:00:02.255Z,1.19
2018-12-29T00:01:02.039Z,1.25
2018-12-29T00:02:02.216Z,1.25
2018-12-29T00:03:01.998Z,1.25
2018-12-29T00:04:02.040Z,1.25
2018-12-29T00:05:01.782Z,1.25
2018-12-29T00:06:02.155Z,1.25
2018-12-29T00:07:02.026Z,1.25
2018-12-29T00:08:01.832Z,1.25
2018-12-29T00:09:02.250Z,1.25
2018-12-29T00:10:02.169Z,1.25
2018-12-29T00:11:01.938Z,1.25
2018-12-29T00:12:01.741Z,1.25
2018-12-29T00:13:01.902Z,1.25
2018-12-29T00:14:01.827Z,1.25
2018-12-29T00:15:02.019Z,1.31
2018-12-29T00:16:02.277Z,1.25
2018-12-29T00:17:02.580Z,1.31
2018-12-29T00:18:01.781Z,1.25
2018-12-29T00:19:01.825Z,1.31
2018-12-29T00:20:01.957Z,1.31
2018-12-29T00:21:01.787Z,1.31
2018-12-29T00:22:01.776Z,1.31
2018-12-29T00:23:01.958Z,1.31
2018-12-29T00:24:01.748Z,1.31
2018-12-29T00:25:02.157Z,1.31
2018-12-29T00:26:02.127Z,1.31
2018-12-29T00:27:02.237Z,1.25
2018-12-29T00:28:01.762Z,1.25
2018-12-29T00:29:01.861Z,1.31
2018-12-29T00:30:01.909Z,1.25
2018-12-29T00:31:01.861Z,1.25
2018-12-29T00:32:01.746Z,1.25
2018-12-29T00:33:01.863Z,1.19
2018-12-29T00:34:01.748Z,1.25
2018-12-29T00:35:01.795Z,1.19
2018-12-29T00:36:01.811Z,1.19
2018-12-29T00:37:02.348Z,1.12
2018-12-29T00:38:02.201Z,1.12
2018-12-29T00:39:01.707Z,1.12
2018-12-29T00:40:01.797Z,1.12
2018-12-29T00:41:01.839Z,1.12
2018-12-29T00:42:01.750Z,1.12
2018-12-29T00:43:01.724Z,1.06
2018-12-29T00:44:02.055Z,1.12
2018-12-29T00:45:03.329Z,1.12
2018-12-29T00:46:01.829Z,1.12
2018-12-29T00:47:01.797Z,1.12
2018-12-29T00:48:01.708Z,1.12
2018-12-29T00:49:01.970Z,1.12
2018-12-29T00:50:01.755Z,1.12
2018-12-29T00:51:01.804Z,1.19
2018-12-29T00:52:01.708Z,1.12
2018-12-29T00:53:01.802Z,1.19
2018-12-29T00:54:01.699Z,1.25
2018-12-29T00:55:02.177Z,1.25
2018-12-29T00:56:01.649Z,1.25
2018-12-29T00:57:01.925Z,1.25
2018-12-29T00:58:01.694Z,1.25
2018-12-29T00:59:01.776Z,1.25
2018-12-29T01:00:02.231Z,1.25
2018-12-29T01:01:01.572Z,1.25
2018-12-29T01:02:02.747Z,1.25
2018-12-29T01:03:01.765Z,1.25
2018-12-29T01:04:01.844Z,1.25
2018-12-29T01:05:01.982Z,1.25
2018-12-29T01:06:01.914Z,1.25
2018-12-29T01:07:02.325Z,1.19
2018-12-29T01:08:02.368Z,1.25
2018-12-29T01:09:03.007Z,1.25
2018-12-29T01:10:02.131Z,1.25
2018-12-29T01:11:01.789Z,1.25
2018-12-29T01:12:01.933Z,1.25
2018-12-29T01:13:01.740Z,1.25
2018-12-29T01:14:01.759Z,1.19
2018-12-29T01:15:02.032Z,1.19
2018-12-29T01:16:02.030Z,1.19
2018-12-29T01:17:01.813Z,1.19
2018-12-29T01:18:01.826Z,1.25
2018-12-29T01:19:01.809Z,1.19
2018-12-29T01:20:02.012Z,1.25
2018-12-29T01:21:01.668Z,1.19
2018-12-29T01:22:01.772Z,1.19
2018-12-29T01:23:01.711Z,1.19
2018-12-29T01:24:01.905Z,1.19
2018-12-29T01:25:02.369Z,1.25
2018-12-29T01:26:02.007Z,1.25
2018-12-29T01:27:01.907Z,1.25
2018-12-29T01:28:01.947Z,1.25
2018-12-29T01:29:01.892Z,1.19
2018-12-29T01:30:02.489Z,1.25
2018-12-29T01:31:01.658Z,1.19
2018-12-29T01:32:01.933Z,1.19
2018-12-29T01:33:01.700Z,1.19
2018-12-29T01:34:01.923Z,1.25
2018-12-29T01:35:02.863Z,1.19
2018-12-29T01:36:01.659Z,1.19
2018-12-29T01:37:02.213Z,1.19
2018-12-29T01:38:02.175Z,1.19
2018-12-29T01:39:01.985Z,1.25
2018-12-29T01:40:02.123Z,1.19
2018-12-29T01:41:01.678Z,1.19
2018-12-29T01:42:02.274Z,1.19
2018-12-29T01:43:01.922Z,1.25
2018-12-29T01:44:01.673Z,1.19
2018-12-29T01:45:01.683Z,1.19
2018-12-29T01:46:01.752Z,1.19
2018-12-29T01:47:01.751Z,1.19
2018-12-29T01:48:01.874Z,1.19
2018-12-29T01:49:01.994Z,1.19
2018-12-29T01:50:02.480Z,1.19
2018-12-29T01:51:01.676Z,1.12
2018-12-29T01:52:01.938Z,1.12
2018-12-29T01:53:02.085Z,1.12
2018-12-29T01:54:01.848Z,1.06
2018-12-29T01:55:01.857Z,1.12
2018-12-29T01:56:02.006Z,1.06
2018-12-29T01:57:01.981Z,1.12
2018-12-29T01:58:01.686Z,1.12
2018-12-29T01:59:01.632Z,1.12
2018-12-29T02:00:01.668Z,1.12
2018-12-29T02:01:01.699Z,1.12
2018-12-29T02:02:02.855Z,1.12
2018-12-29T02:03:01.632Z,1.06
2018-12-29T02:04:01.668Z,1.06
2018-12-29T02:05:02.014Z,1.12
2018-12-29T02:06:01.791Z,1.06
2018-12-29T02:07:01.629Z,1.12
2018-12-29T02:08:01.728Z,1.06
2018-12-29T02:09:01.869Z,1.06
2018-12-29T02:10:01.650Z,1.06
2018-12-29T02:11:01.745Z,1.06
2018-12-29T02:12:01.869Z,1
2018-12-29T02:13:01.728Z,1
2018-12-29T02:14:01.770Z,1
2018-12-29T02:15:01.823Z,1
2018-12-29T02:16:02.090Z,1
2018-12-29T02:17:01.742Z,1.06
2018-12-29T02:18:01.729Z,1
2018-12-29T02:19:01.582Z,1
2018-12-29T02:20:01.981Z,1
2018-12-29T02:21:01.628Z,1
2018-12-29T02:22:01.843Z,1
2018-12-29T02:23:01.665Z,1
2018-12-29T02:24:01.568Z,0.94
2018-12-29T02:25:01.667Z,0.94
2018-12-29T02:26:01.766Z,0.94
2018-12-29T02:27:01.648Z,0.94
2018-12-29T02:28:01.812Z,0.88
2018-12-29T02:29:01.587Z,0.88
2018-12-29T02:30:01.842Z,0.88
2018-12-29T02:31:02.203Z,0.94
2018-12-29T02:32:01.846Z,0.81
2018-12-29T02:33:01.666Z,0.88
2018-12-29T02:34:01.987Z,0.88
2018-12-29T02:35:01.728Z,0.88
2018-12-29T02:36:01.697Z,0.94
2018-12-29T02:37:01.675Z,0.94
2018-12-29T02:38:01.580Z,0.94
2018-12-29T02:39:02.151Z,0.94
2018-12-29T02:40:01.725Z,0.94
2018-12-29T02:41:02.126Z,0.94
2018-12-29T02:42:01.846Z,0.94
2018-12-29T02:43:01.756Z,0.94
2018-12-29T02:44:01.864Z,0.94
2018-12-29T02:45:01.614Z,0.94
2018-12-29T02:46:01.866Z,0.94
2018-12-29T02:47:01.886Z,0.94
2018-12-29T02:48:02.115Z,0.94
2018-12-29T02:49:01.970Z,0.94
2018-12-29T02:50:01.734Z,1
2018-12-29T02:51:01.523Z,0.94
2018-12-29T02:52:01.940Z,1
2018-12-29T02:53:01.756Z,0.94
2018-12-29T02:54:01.647Z,1
2018-12-29T02:55:01.922Z,0.94
2018-12-29T02:56:01.842Z,1
2018-12-29T02:57:01.839Z,1
2018-12-29T02:58:01.651Z,1
2018-12-29T02:59:01.860Z,1
2018-12-29T03:00:01.563Z,1
2018-12-29T03:01:01.853Z,1
2018-12-29T03:02:01.585Z,0.94
2018-12-29T03:03:01.606Z,1
2018-12-29T03:04:02.107Z,1
2018-12-29T03:05:01.776Z,1
2018-12-29T03:06:01.682Z,1
2018-12-29T03:07:02.077Z,1
2018-12-29T03:08:01.733Z,1
2018-12-29T03:09:01.531Z,1
2018-12-29T03:10:01.966Z,1
2018-12-29T03:11:02.049Z,1
2018-12-29T03:12:02.150Z,1
2018-12-29T03:13:01.668Z,1
2018-12-29T03:14:01.937Z,1
2018-12-29T03:15:01.642Z,1
2018-12-29T03:16:02.133Z,1
2018-12-29T03:17:01.756Z,1
2018-12-29T03:18:01.729Z,1
2018-12-29T03:19:01.823Z,1
2018-12-29T03:20:02.333Z,1.06
2018-12-29T03:21:01.616Z,1
2018-12-29T03:22:01.798Z,1.06
2018-12-29T03:23:01.748Z,1.06
2018-12-29T03:24:01.625Z,1.06
2018-12-29T03:25:01.618Z,1.06
2018-12-29T03:26:01.672Z,1.06
2018-12-29T03:27:01.646Z,1.12
2018-12-29T03:28:01.705Z,1.06
2018-12-29T03:29:01.693Z,1.06
2018-12-29T03:30:01.643Z,1.12
2018-12-29T03:31:01.694Z,1.12
2018-12-29T03:32:01.643Z,1.12
2018-12-29T03:33:01.722Z,1.12
2018-12-29T03:34:01.709Z,1.19
2018-12-29T03:35:02.452Z,1.12
2018-12-29T03:36:01.796Z,1.12
2018-12-29T03:37:01.490Z,1.12
2018-12-29T03:38:01.497Z,1.12
2018-12-29T03:39:01.509Z,1.12
2018-12-29T03:40:01.684Z,1.19
2018-12-29T03:41:01.950Z,1.19
2018-12-29T03:42:01.733Z,1.19
2018-12-29T03:43:01.569Z,1.12
2018-12-29T03:44:01.475Z,1.12
2018-12-29T03:45:01.860Z,1.06
2018-12-29T03:46:01.486Z,1.06
2018-12-29T03:47:01.619Z,1.12
2018-12-29T03:48:01.726Z,1.12
2018-12-29T03:49:01.512Z,1.12
2018-12-29T03:50:01.482Z,1.12
2018-12-29T03:51:01.936Z,1.12
2018-12-29T03:52:01.792Z,1.12
2018-12-29T03:53:02.328Z,1.12
2018-12-29T03:54:01.475Z,1.12
2018-12-29T03:55:01.824Z,1.12
2018-12-29T03:56:01.601Z,1.12
2018-12-29T03:57:01.426Z,1.19
2018-12-29T03:58:01.457Z,1.19
2018-12-29T03:59:01.531Z,1.25
2018-12-29T04:00:01.881Z,1.19
2018-12-29T04:01:01.614Z,1.25
2018-12-29T04:02:01.585Z,1.19
2018-12-29T04:03:01.473Z,1.25
2018-12-29T04:04:01.445Z,1.25
2018-12-29T04:05:01.745Z,1.19
2018-12-29T04:06:01.479Z,1.19
2018-12-29T04:07:01.429Z,1.19
2018-12-29T04:08:01.479Z,1.19
2018-12-29T04:09:01.554Z,1.19
2018-12-29T04:10:01.883Z,1.19
2018-12-29T04:11:01.487Z,1.19
2018-12-29T04:12:01.624Z,1.19
2018-12-29T04:13:01.541Z,1.19
2018-12-29T04:14:01.473Z,1.19
2018-12-29T04:15:01.522Z,1.19
2018-12-29T04:16:01.555Z,1.12
2018-12-29T04:17:01.485Z,1.19
2018-12-29T04:18:01.532Z,1.12
2018-12-29T04:19:02.303Z,1.19
2018-12-29T04:20:01.712Z,1.12
2018-12-29T04:21:01.738Z,1.19
2018-12-29T04:22:01.484Z,1.19
2018-12-29T04:23:01.463Z,1.19
2018-12-29T04:24:02.257Z,1.12
2018-12-29T04:25:01.721Z,1.12
2018-12-29T04:26:01.461Z,1.12
2018-12-29T04:27:01.632Z,1.12
2018-12-29T04:28:02.228Z,1.12
2018-12-29T04:29:01.580Z,1.12
2018-12-29T04:30:01.518Z,1.12
2018-12-29T04:31:01.648Z,1.12
2018-12-29T04:32:01.661Z,1.06
2018-12-29T04:33:01.813Z,1.12
2018-12-29T04:34:01.855Z,1.12
2018-12-29T04:35:01.945Z,1.12
2018-12-29T04:36:01.610Z,1.12
2018-12-29T04:37:01.718Z,1.12
2018-12-29T04:38:01.419Z,1.12
2018-12-29T04:39:01.392Z,1.12
2018-12-29T04:40:01.602Z,1.12
2018-12-29T04:41:01.733Z,1.12
2018-12-29T04:42:01.435Z,1.12
2018-12-29T04:43:01.572Z,1.12
2018-12-29T04:44:01.558Z,1.12
2018-12-29T04:45:01.706Z,1.06
2018-12-29T04:46:05.812Z,1
2018-12-29T04:47:01.655Z,1
2018-12-29T04:48:01.389Z,1
2018-12-29T04:49:01.548Z,1
2018-12-29T04:50:01.728Z,1
2018-12-29T04:51:01.403Z,1
2018-12-29T04:52:01.639Z,1
2018-12-29T04:53:01.390Z,1.06
2018-12-29T04:54:01.488Z,1.06
2018-12-29T04:55:01.742Z,1.06
2018-12-29T04:56:01.520Z,1.12
2018-12-29T04:57:01.743Z,1.12
2018-12-29T04:58:01.611Z,1.12
2018-12-29T04:59:01.681Z,1.12
2018-12-29T05:00:01.592Z,1.06
2018-12-29T05:01:01.512Z,1.06
2018-12-29T05:02:01.367Z,1
2018-12-29T05:03:02.178Z,1.06
2018-12-29T05:04:01.536Z,1.06
2018-12-29T05:05:01.437Z,1.06
2018-12-29T05:06:01.382Z,1.06
2018-12-29T05:07:01.472Z,1
2018-12-29T05:08:01.569Z,1.06
2018-12-29T05:09:01.438Z,1
2018-12-29T05:10:01.822Z,1.06
2018-12-29T05:11:01.427Z,1.06
2018-12-29T05:12:01.593Z,1.06
2018-12-29T05:13:01.648Z,1.06
2018-12-29T05:14:01.503Z,1.12
2018-12-29T05:15:01.593Z,1.06
2018-12-29T05:16:01.408Z,1.12
2018-12-29T05:17:01.559Z,1.12
2018-12-29T05:18:01.670Z,1.12
2018-12-29T05:19:01.646Z,1.12
2018-12-29T05:20:01.344Z,1.12
2018-12-29T05:21:01.519Z,1.12
2018-12-29T05:22:01.391Z,1.19
2018-12-29T05:23:01.442Z,1.19
2018-12-29T05:24:01.517Z,1.12
2018-12-29T05:25:01.724Z,1.12
2018-12-29T05:26:01.490Z,1.12
2018-12-29T05:27:01.906Z,1.06
2018-12-29T05:28:01.794Z,1.12
2018-12-29T05:29:01.545Z,1.06
2018-12-29T05:30:01.349Z,1.06
2018-12-29T05:31:01.750Z,1.12
2018-12-29T05:32:01.438Z,1.12
2018-12-29T05:33:01.621Z,1.12
2018-12-29T05:34:01.397Z,1.19
2018-12-29T05:35:01.367Z,1.12
2018-12-29T05:36:01.326Z,1.12
2018-12-29T05:37:01.350Z,1.12
2018-12-29T05:38:01.616Z,1.12
2018-12-29T05:39:01.614Z,1.12
2018-12-29T05:40:01.394Z,1.12
2018-12-29T05:41:01.393Z,1.12
2018-12-29T05:42:01.390Z,1.19
2018-12-29T05:43:01.322Z,1.19
2018-12-29T05:44:01.366Z,1.19
2018-12-29T05:45:01.335Z,1.19
2018-12-29T05:46:01.361Z,1.25
2018-12-29T05:47:01.374Z,1.25
2018-12-29T05:48:01.370Z,1.25
2018-12-29T05:49:01.345Z,1.25
2018-12-29T05:50:01.473Z,1.19
2018-12-29T05:51:01.362Z,1.19
2018-12-29T05:52:01.297Z,1.19
2018-12-29T05:53:01.349Z,1.19
2018-12-29T05:54:01.366Z,1.25
2018-12-29T05:55:01.479Z,1.19
2018-12-29T05:56:01.264Z,1.25
2018-12-29T05:57:01.320Z,1.25
2018-12-29T05:58:01.352Z,1.25
2018-12-29T05:59:01.575Z,1.25
2018-12-29T06:00:01.751Z,1.25
2018-12-29T06:01:02.099Z,1.25
2018-12-29T06:02:01.319Z,1.25
2018-12-29T06:03:01.570Z,1.19
2018-12-29T06:04:01.582Z,1.25
2018-12-29T06:05:01.585Z,1.25
2018-12-29T06:06:01.306Z,1.19
2018-12-29T06:07:01.305Z,1.25
2018-12-29T06:08:01.501Z,1.19
2018-12-29T06:09:01.352Z,1.25
2018-12-29T06:10:01.478Z,1.19
2018-12-29T06:11:01.641Z,1.19
2018-12-29T06:12:01.697Z,1.19
2018-12-29T06:13:01.281Z,1.19
2018-12-29T06:14:01.490Z,1.19
2018-12-29T06:15:01.449Z,1.19
2018-12-29T06:16:01.728Z,1.12
2018-12-29T06:17:01.361Z,1.19
2018-12-29T06:18:01.618Z,1.19
2018-12-29T06:19:01.583Z,1.19
2018-12-29T06:20:01.814Z,1.19
2018-12-29T06:21:01.566Z,1.19
2018-12-29T06:22:01.667Z,1.19
2018-12-29T06:23:01.692Z,1.19
2018-12-29T06:24:01.289Z,1.25
2018-12-29T06:25:01.644Z,1.25
2018-12-29T06:26:01.464Z,1.19
2018-12-29T06:27:01.686Z,1.25
2018-12-29T06:28:01.271Z,1.25
2018-12-29T06:29:01.618Z,1.25
2018-12-29T06:30:01.544Z,1.25
2018-12-29T06:31:01.318Z,1.19
2018-12-29T06:32:01.415Z,1.19
2018-12-29T06:33:01.253Z,1.25
2018-12-29T06:34:01.909Z,1.19
2018-12-29T06:35:01.425Z,1.25
2018-12-29T06:36:01.246Z,1.19
2018-12-29T06:37:01.452Z,1.25
2018-12-29T06:38:01.287Z,1.25
2018-12-29T06:39:01.504Z,1.25
2018-12-29T06:40:01.239Z,1.25
2018-12-29T06:41:01.265Z,1.25
2018-12-29T06:42:01.252Z,1.25
2018-12-29T06:43:01.698Z,1.25
2018-12-29T06:44:01.280Z,1.25
2018-12-29T06:45:01.534Z,1.31
2018-12-29T06:46:01.348Z,1.25
2018-12-29T06:47:01.269Z,1.31
2018-12-29T06:48:01.839Z,1.25
2018-12-29T06:49:01.797Z,1.25
2018-12-29T06:50:01.364Z,1.25
2018-12-29T06:51:01.597Z,1.25
2018-12-29T06:52:01.322Z,1.25
2018-12-29T06:53:01.387Z,1.25
2018-12-29T06:54:01.278Z,1.25
2018-12-29T06:55:01.546Z,1.25
2018-12-29T06:56:01.403Z,1.25
2018-12-29T06:57:01.367Z,1.25
2018-12-29T06:58:01.521Z,1.25
2018-12-29T06:59:01.988Z,1.19
2018-12-29T07:00:01.232Z,1.25
2018-12-29T07:01:01.510Z,1.25
2018-12-29T07:02:01.534Z,1.25
2018-12-29T07:03:01.621Z,1.19
2018-12-29T07:04:01.409Z,1.25
2018-12-29T07:05:01.365Z,1.25
2018-12-29T07:06:02.039Z,1.25
2018-12-29T07:07:01.498Z,1.25
2018-12-29T07:08:01.214Z,1.25
2018-12-29T07:09:01.583Z,1.25
2018-12-29T07:10:01.248Z,1.25
2018-12-29T07:11:01.504Z,1.25
2018-12-29T07:12:01.566Z,1.25
2018-12-29T07:13:01.559Z,1.25
2018-12-29T07:14:01.376Z,1.25
2018-12-29T07:15:01.319Z,1.25
2018-12-29T07:16:01.273Z,1.25
2018-12-29T07:17:01.210Z,1.25
2018-12-29T07:18:01.321Z,1.25
2018-12-29T07:19:01.301Z,1.31
2018-12-29T07:20:01.351Z,1.31
2018-12-29T07:21:01.271Z,1.31
2018-12-29T07:22:01.176Z,1.31
2018-12-29T07:23:01.464Z,1.25
2018-12-29T07:24:01.176Z,1.31
2018-12-29T07:25:01.206Z,1.31
2018-12-29T07:26:01.305Z,1.25
2018-12-29T07:27:01.201Z,1.31
2018-12-29T07:28:01.159Z,1.31
2018-12-29T07:29:01.393Z,1.31
2018-12-29T07:30:01.183Z,1.31
2018-12-29T07:31:01.261Z,1.31
2018-12-29T07:32:01.492Z,1.31
2018-12-29T07:33:01.423Z,1.31
2018-12-29T07:34:01.424Z,1.31
2018-12-29T07:35:01.166Z,1.31
2018-12-29T07:36:01.237Z,1.31
2018-12-29T07:37:01.307Z,1.31
2018-12-29T07:38:01.195Z,1.31
2018-12-29T07:39:01.505Z,1.31
2018-12-29T07:40:01.465Z,1.31
2018-12-29T07:41:01.300Z,1.31
2018-12-29T07:42:01.208Z,1.31
2018-12-29T07:43:02.033Z,1.31
2018-12-29T07:44:01.972Z,1.31
2018-12-29T07:45:01.206Z,1.31
2018-12-29T07:46:01.275Z,1.31
2018-12-29T07:47:01.750Z,1.31
2018-12-29T07:48:01.134Z,1.31
2018-12-29T07:49:01.966Z,1.31
2018-12-29T07:50:01.294Z,1.25
2018-12-29T07:51:01.169Z,1.31
2018-12-29T07:52:01.458Z,1.31
2018-12-29T07:53:01.352Z,1.31
2018-12-29T07:54:01.291Z,1.31
2018-12-29T07:55:01.290Z,1.31
2018-12-29T07:56:01.232Z,1.31
2018-12-29T07:57:01.198Z,1.37
2018-12-29T07:58:01.203Z,1.31
2018-12-29T07:59:00.930Z,1.31
2018-12-29T08:00:01.404Z,1.37
2018-12-29T08:01:01.255Z,1.37
2018-12-29T08:02:01.434Z,1.37
2018-12-29T08:03:01.579Z,1.37
2018-12-29T08:04:01.180Z,1.31
2018-12-29T08:05:01.478Z,1.37
2018-12-29T08:06:01.168Z,1.37
2018-12-29T08:07:01.333Z,1.37
2018-12-29T08:08:01.150Z,1.37
2018-12-29T08:09:01.162Z,1.44
2018-12-29T08:10:01.417Z,1.37
2018-12-29T08:11:01.218Z,1.44
2018-12-29T08:12:01.639Z,1.37
2018-12-29T08:13:01.634Z,1.44
2018-12-29T08:14:01.526Z,1.44
2018-12-29T08:15:01.453Z,1.44
2018-12-29T08:16:01.398Z,1.44
2018-12-29T08:17:01.383Z,1.44
2018-12-29T08:18:01.363Z,1.44
2018-12-29T08:19:01.127Z,1.5
2018-12-29T08:20:01.714Z,1.44
2018-12-29T08:21:02.005Z,1.44
2018-12-29T08:22:01.206Z,1.44
2018-12-29T08:23:01.200Z,1.5
2018-12-29T08:24:01.358Z,1.44
2018-12-29T08:25:01.319Z,1.44
2018-12-29T08:26:01.116Z,1.44
2018-12-29T08:27:01.644Z,1.5
2018-12-29T08:28:01.413Z,1.44
2018-12-29T08:29:01.305Z,1.5
2018-12-29T08:30:01.243Z,1.5
2018-12-29T08:31:01.419Z,1.5
2018-12-29T08:32:01.293Z,1.5
2018-12-29T08:33:01.331Z,1.5
2018-12-29T08:34:01.504Z,1.5
2018-12-29T08:35:01.434Z,1.5
2018-12-29T08:36:01.700Z,1.5
2018-12-29T08:37:01.084Z,1.56
2018-12-29T08:38:01.475Z,1.56
2018-12-29T08:39:01.607Z,1.56
2018-12-29T08:40:01.099Z,1.5
2018-12-29T08:41:01.197Z,1.56
2018-12-29T08:42:01.181Z,1.5
2018-12-29T08:43:01.131Z,1.5
2018-12-29T08:44:01.361Z,1.56
2018-12-29T08:45:01.250Z,1.56
2018-12-29T08:46:01.192Z,1.5
2018-12-29T08:47:05.165Z,1.56
2018-12-29T08:48:01.493Z,1.5
2018-12-29T08:49:01.137Z,1.56
2018-12-29T08:50:01.225Z,1.56
2018-12-29T08:51:01.535Z,1.5
2018-12-29T08:52:01.399Z,1.56
2018-12-29T08:53:01.118Z,1.56
2018-12-29T08:54:01.121Z,1.56
2018-12-29T08:55:01.185Z,1.56
2018-12-29T08:56:01.327Z,1.62
2018-12-29T08:57:01.152Z,1.62
2018-12-29T08:58:01.068Z,1.62
2018-12-29T08:59:01.202Z,1.56
2018-12-29T09:00:01.264Z,1.62
2018-12-29T09:01:01.024Z,1.56
2018-12-29T09:02:01.435Z,1.62
2018-12-29T09:03:01.261Z,1.62
2018-12-29T09:04:01.137Z,1.62
2018-12-29T09:05:01.267Z,1.62
2018-12-29T09:06:01.183Z,1.62
2018-12-29T09:07:01.114Z,1.62
2018-12-29T09:08:01.164Z,1.62
2018-12-29T09:09:01.008Z,1.62
2018-12-29T09:10:01.239Z,1.62
2018-12-29T09:11:01.012Z,1.62
2018-12-29T09:12:01.305Z,1.69
2018-12-29T09:13:01.385Z,1.62
2018-12-29T09:14:01.518Z,1.69
2018-12-29T09:15:01.705Z,1.69
2018-12-29T09:16:01.484Z,1.69
2018-12-29T09:17:01.204Z,1.69
2018-12-29T09:18:01.618Z,1.69
2018-12-29T09:19:01.225Z,1.69
2018-12-29T09:20:01.853Z,1.69
2018-12-29T09:21:01.266Z,1.69
2018-12-29T09:22:01.228Z,1.75
2018-12-29T09:23:01.663Z,1.75
2018-12-29T09:24:01.225Z,1.75
2018-12-29T09:25:01.178Z,1.75
2018-12-29T09:26:01.055Z,1.81
2018-12-29T09:27:01.138Z,1.81
2018-12-29T09:28:01.250Z,1.87
2018-12-29T09:29:01.451Z,1.87
2018-12-29T09:30:01.283Z,1.87
2018-12-29T09:31:01.224Z,1.87
2018-12-29T09:32:01.212Z,1.87
2018-12-29T09:33:01.850Z,1.94
2018-12-29T09:34:01.316Z,1.94
2018-12-29T09:35:01.390Z,1.94
2018-12-29T09:36:01.258Z,1.94
2018-12-29T09:37:01.201Z,2
2018-12-29T09:38:00.964Z,2
2018-12-29T09:39:01.047Z,1.94
2018-12-29T09:40:01.818Z,1.94
2018-12-29T09:41:01.375Z,2
2018-12-29T09:42:01.234Z,2
2018-12-29T09:43:01.175Z,2
2018-12-29T09:44:01.791Z,2.06
2018-12-29T09:45:01.302Z,2
2018-12-29T09:46:01.365Z,2.06
2018-12-29T09:47:01.156Z,2.06
2018-12-29T09:48:01.126Z,2.06
2018-12-29T09:49:02.043Z,2.06
2018-12-29T09:50:01.000Z,2.06
2018-12-29T09:51:01.092Z,2.06
2018-12-29T09:52:01.663Z,2.06
2018-12-29T09:53:04.215Z,2.12
2018-12-29T09:54:01.046Z,2.12
2018-12-29T09:55:01.039Z,2.12
2018-12-29T09:56:01.236Z,2.12
2018-12-29T09:57:01.272Z,2.12
2018-12-29T09:58:01.191Z,2.12
2018-12-29T09:59:00.966Z,2.12
2018-12-29T10:00:01.190Z,2.19
2018-12-29T10:01:01.335Z,2.19
2018-12-29T10:02:01.304Z,2.19
2018-12-29T10:03:01.398Z,2.19
2018-12-29T10:04:01.053Z,2.25
2018-12-29T10:05:01.790Z,2.19
2018-12-29T10:06:01.241Z,2.19
2018-12-29T10:07:01.282Z,2.25
2018-12-29T10:08:01.206Z,2.25
2018-12-29T10:09:01.159Z,2.25
2018-12-29T10:10:01.145Z,2.25
2018-12-29T10:11:01.293Z,2.25
2018-12-29T10:12:01.301Z,2.25
2018-12-29T10:13:01.014Z,2.19
2018-12-29T10:14:00.990Z,2.19
2018-12-29T10:15:01.094Z,2.25
2018-12-29T10:16:01.206Z,2.19
2018-12-29T10:17:01.779Z,2.19
2018-12-29T10:18:01.126Z,2.25
2018-12-29T10:19:01.278Z,2.19
2018-12-29T10:20:01.232Z,2.19
2018-12-29T10:21:01.073Z,2.19
2018-12-29T10:22:01.656Z,2.19
2018-12-29T10:23:01.271Z,2.19
2018-12-29T10:24:01.843Z,2.19
2018-12-29T10:25:01.513Z,2.19
2018-12-29T10:26:00.916Z,2.19
2018-12-29T10:27:01.206Z,2.25
2018-12-29T10:28:01.359Z,2.25
2018-12-29T10:29:01.242Z,2.25
2018-12-29T10:30:01.011Z,2.25
2018-12-29T10:31:02.231Z,2.31
2018-12-29T10:32:01.155Z,2.31
2018-12-29T10:33:01.243Z,2.25
2018-12-29T10:34:01.327Z,2.31
2018-12-29T10:35:00.884Z,2.31
2018-12-29T10:36:01.746Z,2.31
2018-12-29T10:37:01.018Z,2.31
2018-12-29T10:38:01.053Z,2.31
2018-12-29T10:39:01.341Z,2.31
2018-12-29T10:40:00.952Z,2.37
2018-12-29T10:41:01.386Z,2.37
2018-12-29T10:42:01.089Z,2.37
2018-12-29T10:43:00.957Z,2.37
2018-12-29T10:44:01.152Z,2.37
2018-12-29T10:45:01.484Z,2.44
2018-12-29T10:46:01.251Z,2.37
2018-12-29T10:47:01.104Z,2.44
2018-12-29T10:48:01.628Z,2.37
2018-12-29T10:49:01.323Z,2.44
2018-12-29T10:50:02.279Z,2.44
2018-12-29T10:51:00.929Z,2.44
2018-12-29T10:52:03.595Z,2.37
2018-12-29T10:53:01.289Z,2.37
2018-12-29T10:54:01.669Z,2.37
2018-12-29T10:55:00.892Z,2.44
2018-12-29T10:56:00.946Z,2.37
2018-12-29T10:57:01.259Z,2.44
2018-12-29T10:58:01.513Z,2.37
2018-12-29T10:59:01.106Z,2.44
2018-12-29T11:00:01.789Z,2.44
2018-12-29T11:01:01.134Z,2.44
2018-12-29T11:02:06.649Z,2.44
2018-12-29T11:03:01.298Z,2.44
2018-12-29T11:04:00.858Z,2.44
2018-12-29T11:05:01.002Z,2.44
2018-12-29T11:06:01.930Z,2.44
2018-12-29T11:07:00.936Z,2.44
2018-12-29T11:08:01.428Z,2.44
2018-12-29T11:09:01.045Z,2.5
2018-12-29T11:10:00.965Z,2.44
2018-12-29T11:11:01.141Z,2.5
2018-12-29T11:12:01.110Z,2.44
2018-12-29T11:13:01.186Z,2.5
2018-12-29T11:14:01.672Z,2.5
2018-12-29T11:15:01.031Z,2.5
2018-12-29T11:16:01.160Z,2.5
2018-12-29T11:17:04.395Z,2.44
2018-12-29T11:18:01.280Z,2.5
2018-12-29T11:19:02.063Z,2.44
2018-12-29T11:20:01.221Z,2.5
2018-12-29T11:21:02.819Z,2.44
2018-12-29T11:22:01.741Z,2.5
2018-12-29T11:23:01.673Z,2.5
2018-12-29T11:24:01.049Z,2.5
2018-12-29T11:25:01.298Z,2.5
2018-12-29T11:26:01.781Z,2.5
2018-12-29T11:27:01.220Z,2.5
2018-12-29T11:28:01.018Z,2.5
2018-12-29T11:29:00.882Z,2.5
2018-12-29T11:30:01.149Z,2.5
2018-12-29T11:31:01.382Z,2.5
2018-12-29T11:32:01.169Z,2.5
2018-12-29T11:33:01.217Z,2.5
2018-12-29T11:34:01.156Z,2.5
2018-12-29T11:35:00.951Z,2.5
2018-12-29T11:36:01.207Z,2.56
2018-12-29T11:37:01.235Z,2.5
2018-12-29T11:38:00.967Z,2.5
2018-12-29T11:39:01.201Z,2.5
2018-12-29T11:40:01.095Z,2.5
2018-12-29T11:41:01.091Z,2.5
2018-12-29T11:42:00.789Z,2.5
2018-12-29T11:43:01.037Z,2.44
2018-12-29T11:44:00.857Z,2.5
2018-12-29T11:45:01.112Z,2.5
2018-12-29T11:46:00.856Z,2.5
2018-12-29T11:47:00.839Z,2.5
2018-12-29T11:48:01.136Z,2.5
2018-12-29T11:49:02.352Z,2.56
2018-12-29T11:50:01.455Z,2.56
2018-12-29T11:51:02.898Z,2.56
2018-12-29T11:52:01.273Z,2.56
2018-12-29T11:53:00.874Z,2.56
2018-12-29T11:54:00.886Z,2.56
2018-12-29T11:55:01.471Z,2.56
2018-12-29T11:56:01.249Z,2.56
2018-12-29T11:57:01.016Z,2.56
2018-12-29T11:58:01.093Z,2.5
2018-12-29T11:59:01.265Z,2.56
2018-12-29T12:00:02.710Z,2.56
2018-12-29T12:01:00.921Z,2.56
2018-12-29T12:02:01.230Z,2.56
2018-12-29T12:03:00.907Z,2.56
2018-12-29T12:04:01.034Z,2.56
2018-12-29T12:05:01.056Z,2.62
2018-12-29T12:06:00.871Z,2.56
2018-12-29T12:07:00.964Z,2.56
2018-12-29T12:08:00.927Z,2.56
2018-12-29T12:09:02.507Z,2.56
2018-12-29T12:10:00.862Z,2.56
2018-12-29T12:11:00.878Z,2.56
2018-12-29T12:12:00.887Z,2.56
2018-12-29T12:13:01.677Z,2.56
2018-12-29T12:14:00.866Z,2.56
2018-12-29T12:15:01.295Z,2.56
2018-12-29T12:16:00.911Z,2.56
2018-12-29T12:17:01.659Z,2.56
2018-12-29T12:18:02.626Z,2.56
2018-12-29T12:19:00.899Z,2.56
2018-12-29T12:20:01.422Z,2.56
2018-12-29T12:21:01.192Z,2.62
2018-12-29T12:22:01.001Z,2.56
2018-12-29T12:23:01.059Z,2.62
2018-12-29T12:24:01.536Z,2.62
2018-12-29T12:25:01.043Z,2.62
2018-12-29T12:26:01.232Z,2.62
2018-12-29T12:27:01.037Z,2.62
2018-12-29T12:28:01.679Z,2.69
2018-12-29T12:29:03.287Z,2.62
2018-12-29T12:30:01.256Z,2.69
2018-12-29T12:31:01.328Z,2.62
2018-12-29T12:32:00.823Z,2.62
2018-12-29T12:33:01.539Z,2.62
2018-12-29T12:34:02.542Z,2.69
2018-12-29T12:35:00.961Z,2.62
2018-12-29T12:36:01.110Z,2.75
2018-12-29T12:37:01.108Z,2.69
2018-12-29T12:38:00.914Z,2.69
2018-12-29T12:39:03.473Z,2.75
2018-12-29T12:40:01.105Z,2.75
2018-12-29T12:41:00.919Z,2.69
2018-12-29T12:42:00.874Z,2.69
2018-12-29T12:43:00.796Z,2.69
2018-12-29T12:44:01.204Z,2.75
2018-12-29T12:45:01.007Z,2.75
2018-12-29T12:46:01.032Z,2.75
2018-12-29T12:47:01.003Z,2.75
2018-12-29T12:48:05.701Z,2.75
2018-12-29T12:49:01.014Z,2.69
2018-12-29T12:50:02.227Z,2.69
2018-12-29T12:51:01.264Z,2.69
2018-12-29T12:52:01.015Z,2.75
2018-12-29T12:53:01.017Z,2.75
2018-12-29T12:54:01.016Z,2.69
2018-12-29T12:55:00.845Z,2.75
2018-12-29T12:56:01.493Z,2.69
2018-12-29T12:57:03.164Z,2.75
2018-12-29T12:58:02.819Z,2.69
2018-12-29T12:59:01.074Z,2.69
2018-12-29T13:00:02.868Z,2.69
2018-12-29T13:01:02.724Z,2.75
2018-12-29T13:02:01.885Z,2.69
2018-12-29T13:03:01.035Z,2.69
2018-12-29T13:04:01.195Z,2.69
2018-12-29T13:05:01.178Z,2.75
2018-12-29T13:06:01.239Z,2.75
2018-12-29T13:07:00.814Z,2.75
2018-12-29T13:08:00.802Z,2.75
2018-12-29T13:09:01.249Z,2.81
2018-12-29T13:10:00.938Z,2.75
2018-12-29T13:11:00.973Z,2.75
2018-12-29T13:12:00.997Z,2.75
2018-12-29T13:13:00.729Z,2.81
2018-12-29T13:14:00.789Z,2.75
2018-12-29T13:15:01.111Z,2.81
2018-12-29T13:16:00.815Z,2.75
2018-12-29T13:17:00.980Z,2.81
2018-12-29T13:18:01.668Z,2.75
2018-12-29T13:19:00.880Z,2.81
2018-12-29T13:20:00.885Z,2.75
2018-12-29T13:21:00.544Z,2.75
2018-12-29T13:22:01.037Z,2.81
2018-12-29T13:23:00.771Z,2.75
2018-12-29T13:24:00.787Z,2.81
2018-12-29T13:25:00.774Z,2.75